Apellis — 3FJT2 — position and weather

sailwx.info

Track history (hours):
 
Tides and Currents Weather Stations Pressure Air Temp Water Temp Dewpoint Dewpoint Depression Visibility Wind Speed Wind Dir Waves Ship Positions

Apellis

Last reported at 2014-Dec-18 18:15 UTC. Time now 2014-Dec-19 10:05 UTC.
Position N 39°55' E 000°12'.

Length 178 m; draft 10.2 m.

Type: Cargo ship. MMSI: 353847000.

Date/timePositionNaut miles runAvg speedWind from/ knotsBaromVisibWave heightAir tempDewpointWater temp
2014-Dec-18 18:15N 39°55' E 000°12'811.5
2014-Dec-18 17:33N 39°51' E 000°21'1111.1
2014-Dec-18 16:33N 39°47' E 000°34'1111.4
2014-Dec-18 15:33N 39°41' E 000°47'3411.2
2014-Dec-18 12:32N 39°26' E 001°26'1111.1
2014-Dec-18 11:31N 39°21' E 001°39'1010.7
2014-Dec-18 10:33N 39°17' E 001°51'1010.1
2014-Dec-18 09:33N 39°12' E 002°03'10 9.7
2014-Dec-18 08:33N 39°08' E 002°14'10 9.7
2014-Dec-18 07:33N 39°03' E 002°25'10 9.8
2014-Dec-18 06:33N 38°59' E 002°37'10 9.9
2014-Dec-18 05:34N 38°55' E 002°48'10 9.8
2014-Dec-18 04:33N 38°53' E 003°01'10 9.7
2014-Dec-18 03:33N 38°51' E 003°13'10 9.6
2014-Dec-18 02:33N 38°49' E 003°25'12 9.5
2014-Dec-18 01:21N 38°47' E 003°39'9 9.7
2014-Dec-18 00:25N 38°45' E 003°51'  
2014-Dec-13 09:32N 35°54' E 024°15'1110.3
2014-Dec-13 08:29N 35°57' E 024°28'910.1
2014-Dec-13 07:33N 35°60' E 024°39'10 9.8
2014-Dec-13 06:33N 36°02' E 024°51'10 9.9
2014-Dec-13 05:33N 36°05' E 025°03'1010.1
2014-Dec-13 04:33N 36°08' E 025°15'1010.2
2014-Dec-13 03:33N 36°10' E 025°27'9 9.1
2014-Dec-13 02:33N 36°17' E 025°35'1110.6
2014-Dec-13 01:33N 36°27' E 025°39'1110.7
2014-Dec-13 00:33N 36°33' E 025°50'1110.5
2014-Dec-12 23:33N 36°38' E 026°02'1010.3
2014-Dec-12 22:33N 36°44' E 026°12'1010.1
2014-Dec-12 21:33N 36°50' E 026°23'18 9.2
2014-Dec-12 19:33N 37°03' E 026°39'18 8.4
2014-Dec-12 17:23N 37°14' E 026°57'  
Track history (hours):
 
Tides and Currents Weather Stations Pressure Air Temp Water Temp Dewpoint Dewpoint Depression Visibility Wind Speed Wind Dir Waves Ship Positions

Apellis

Last reported at 2014-Dec-18 18:15 UTC. Time now 2014-Dec-19 10:05 UTC.
Position N 39°55' E 000°12'.

Length 178 m; draft 10.2 m.

Type: Cargo ship. MMSI: 353847000.

Date/timePositionNaut miles runAvg speedWind from/ knotsBaromVisibWave heightAir tempDewpointWater temp
2014-Dec-18 18:15N 39°55' E 000°12'811.5
2014-Dec-18 17:33N 39°51' E 000°21'1111.1
2014-Dec-18 16:33N 39°47' E 000°34'1111.4
2014-Dec-18 15:33N 39°41' E 000°47'3411.2
2014-Dec-18 12:32N 39°26' E 001°26'1111.1
2014-Dec-18 11:31N 39°21' E 001°39'1010.7
2014-Dec-18 10:33N 39°17' E 001°51'1010.1
2014-Dec-18 09:33N 39°12' E 002°03'10 9.7
2014-Dec-18 08:33N 39°08' E 002°14'10 9.7
2014-Dec-18 07:33N 39°03' E 002°25'10 9.8
2014-Dec-18 06:33N 38°59' E 002°37'10 9.9
2014-Dec-18 05:34N 38°55' E 002°48'10 9.8
2014-Dec-18 04:33N 38°53' E 003°01'10 9.7
2014-Dec-18 03:33N 38°51' E 003°13'10 9.6
2014-Dec-18 02:33N 38°49' E 003°25'12 9.5
2014-Dec-18 01:21N 38°47' E 003°39'9 9.7
2014-Dec-18 00:25N 38°45' E 003°51'  
2014-Dec-13 09:32N 35°54' E 024°15'1110.3
2014-Dec-13 08:29N 35°57' E 024°28'910.1
2014-Dec-13 07:33N 35°60' E 024°39'10 9.8
2014-Dec-13 06:33N 36°02' E 024°51'10 9.9
2014-Dec-13 05:33N 36°05' E 025°03'1010.1
2014-Dec-13 04:33N 36°08' E 025°15'1010.2
2014-Dec-13 03:33N 36°10' E 025°27'9 9.1
2014-Dec-13 02:33N 36°17' E 025°35'1110.6
2014-Dec-13 01:33N 36°27' E 025°39'1110.7
2014-Dec-13 00:33N 36°33' E 025°50'1110.5
2014-Dec-12 23:33N 36°38' E 026°02'1010.3
2014-Dec-12 22:33N 36°44' E 026°12'1010.1
2014-Dec-12 21:33N 36°50' E 026°23'18 9.2
2014-Dec-12 19:33N 37°03' E 026°39'18 8.4
2014-Dec-12 17:23N 37°14' E 026°57'  

Dump ship's entire track history